Main page
METAR-TAF:

METAR-TAF

Airports :

Qurghonteppa, Tajikistan

Qurghonteppa International Airport

latitude: 37-51-44N, longitude: 068-51-46E, elevation: 449 m

Current weather observation

The report was made 39 minutes ago, at 02:00 UTC
Wind 2 kt from variable directions
Temperature 35°C
Humidity 71%
Pressure 1014 hPa
Visibility 10 km or more
Scattered clouds at a height of 17000 ft

METAR: UTDT 220200Z VRB01MPS 9999 SCT170 12/07 Q1014 35////// RMK QFE721/0962

Time: 07:39 (02:39 UTC)

Forecast

The report was made 2 hours and 39 minutes ago, at 00:00 UTC
Forecast valid from 22 at 01 UTC to 22 at 10 UTC
Wind 4 kt from variable directions
Visibility: 7000 m
Few clouds at a height of 6600 ft
Scattered clouds at a height of 15000 ft

TAF: UTDT 220000Z 2201/2210 VRB02MPS 7000 FEW066 SCT150

Weather observations and forecasts of more than 4000 airports (METAR and TAF reports).

The available stations are represented by yellow and red dots on the map.

Hover mouse over dot to see the name of the station.

Then click to see weather observations and forecasts.

To change the map : click on the green buttons with a black cross to zoom in, on the green button with a dash to zoom out, or on the green arrows for adjacent maps.


METAR-TAF: